sensor_id;sensor_type;location;lat;lon;timestamp;P1;durP1;ratioP1;P2;durP2;ratioP2
19492;SDS011;9887;54.366;10.958;2022-10-23T00:01:31;14.90;;;2.78;;
19492;SDS011;9887;54.366;10.958;2022-10-23T00:04:02;9.70;;;3.05;;
19492;SDS011;9887;54.366;10.958;2022-10-23T00:06:32;13.23;;;2.50;;
19492;SDS011;9887;54.366;10.958;2022-10-23T00:09:01;10.82;;;2.55;;
19492;SDS011;9887;54.366;10.958;2022-10-23T00:11:32;8.60;;;2.42;;
19492;SDS011;9887;54.366;10.958;2022-10-23T00:14:02;10.13;;;2.42;;
19492;SDS011;9887;54.366;10.958;2022-10-23T00:16:31;11.88;;;2.67;;
19492;SDS011;9887;54.366;10.958;2022-10-23T00:18:59;9.48;;;2.63;;
19492;SDS011;9887;54.366;10.958;2022-10-23T00:21:29;10.02;;;3.38;;
19492;SDS011;9887;54.366;10.958;2022-10-23T00:23:56;12.00;;;2.47;;
19492;SDS011;9887;54.366;10.958;2022-10-23T00:26:25;14.02;;;2.45;;
19492;SDS011;9887;54.366;10.958;2022-10-23T00:28:53;11.80;;;3.17;;
19492;SDS011;9887;54.366;10.958;2022-10-23T00:31:22;14.90;;;3.50;;
19492;SDS011;9887;54.366;10.958;2022-10-23T00:33:52;11.60;;;3.33;;
19492;SDS011;9887;54.366;10.958;2022-10-23T00:36:21;10.43;;;3.25;;
19492;SDS011;9887;54.366;10.958;2022-10-23T00:38:49;13.23;;;2.83;;
19492;SDS011;9887;54.366;10.958;2022-10-23T00:41:19;9.57;;;3.30;;
19492;SDS011;9887;54.366;10.958;2022-10-23T00:44:03;13.75;;;3.58;;
19492;SDS011;9887;54.366;10.958;2022-10-23T00:46:34;16.23;;;3.95;;
19492;SDS011;9887;54.366;10.958;2022-10-23T00:49:03;16.50;;;3.80;;
19492;SDS011;9887;54.366;10.958;2022-10-23T00:51:35;15.88;;;4.22;;
19492;SDS011;9887;54.366;10.958;2022-10-23T00:54:06;14.98;;;4.30;;
19492;SDS011;9887;54.366;10.958;2022-10-23T00:56:49;11.40;;;3.88;;
19492;SDS011;9887;54.366;10.958;2022-10-23T00:59:19;13.23;;;3.70;;
19492;SDS011;9887;54.366;10.958;2022-10-23T01:01:47;17.35;;;4.47;;
19492;SDS011;9887;54.366;10.958;2022-10-23T01:04:15;13.75;;;4.93;;
19492;SDS011;9887;54.366;10.958;2022-10-23T01:06:52;10.60;;;4.38;;
19492;SDS011;9887;54.366;10.958;2022-10-23T01:09:26;15.88;;;4.50;;
19492;SDS011;9887;54.366;10.958;2022-10-23T01:12:03;17.40;;;4.88;;
19492;SDS011;9887;54.366;10.958;2022-10-23T01:14:42;14.10;;;4.57;;
19492;SDS011;9887;54.366;10.958;2022-10-23T01:17:18;10.35;;;4.63;;
19492;SDS011;9887;54.366;10.958;2022-10-23T01:19:55;14.48;;;5.10;;
19492;SDS011;9887;54.366;10.958;2022-10-23T01:25:34;13.25;;;5.88;;
19492;SDS011;9887;54.366;10.958;2022-10-23T01:28:18;21.33;;;7.38;;
19492;SDS011;9887;54.366;10.958;2022-10-23T01:30:52;18.70;;;6.70;;
19492;SDS011;9887;54.366;10.958;2022-10-23T01:33:25;22.90;;;7.97;;
19492;SDS011;9887;54.366;10.958;2022-10-23T01:35:59;23.20;;;8.18;;
19492;SDS011;9887;54.366;10.958;2022-10-23T01:38:30;16.98;;;7.10;;
19492;SDS011;9887;54.366;10.958;2022-10-23T01:41:16;19.20;;;7.60;;
19492;SDS011;9887;54.366;10.958;2022-10-23T01:43:50;19.63;;;7.40;;
19492;SDS011;9887;54.366;10.958;2022-10-23T01:46:24;16.92;;;6.97;;
19492;SDS011;9887;54.366;10.958;2022-10-23T01:48:54;19.58;;;7.25;;
19492;SDS011;9887;54.366;10.958;2022-10-23T01:51:25;21.38;;;7.93;;
19492;SDS011;9887;54.366;10.958;2022-10-23T01:54:19;13.07;;;7.55;;
19492;SDS011;9887;54.366;10.958;2022-10-23T01:56:53;19.98;;;7.38;;
19492;SDS011;9887;54.366;10.958;2022-10-23T01:59:27;21.15;;;7.72;;
19492;SDS011;9887;54.366;10.958;2022-10-23T02:01:59;19.40;;;7.07;;
19492;SDS011;9887;54.366;10.958;2022-10-23T02:04:30;20.17;;;6.75;;
19492;SDS011;9887;54.366;10.958;2022-10-23T02:07:05;15.98;;;7.03;;
19492;SDS011;9887;54.366;10.958;2022-10-23T02:09:33;18.08;;;6.28;;
19492;SDS011;9887;54.366;10.958;2022-10-23T02:12:02;24.13;;;6.82;;
19492;SDS011;9887;54.366;10.958;2022-10-23T02:14:42;14.02;;;6.07;;
19492;SDS011;9887;54.366;10.958;2022-10-23T02:17:15;19.30;;;5.68;;
19492;SDS011;9887;54.366;10.958;2022-10-23T02:19:54;15.95;;;5.45;;
19492;SDS011;9887;54.366;10.958;2022-10-23T02:22:32;21.13;;;5.65;;
19492;SDS011;9887;54.366;10.958;2022-10-23T02:25:06;20.15;;;5.35;;
19492;SDS011;9887;54.366;10.958;2022-10-23T02:27:40;17.38;;;5.47;;
19492;SDS011;9887;54.366;10.958;2022-10-23T02:30:13;16.63;;;4.82;;
19492;SDS011;9887;54.366;10.958;2022-10-23T02:32:50;15.43;;;5.25;;
19492;SDS011;9887;54.366;10.958;2022-10-23T02:35:22;14.27;;;5.47;;
19492;SDS011;9887;54.366;10.958;2022-10-23T02:38:00;10.05;;;4.70;;
19492;SDS011;9887;54.366;10.958;2022-10-23T02:40:30;16.20;;;5.18;;
19492;SDS011;9887;54.366;10.958;2022-10-23T02:43:06;15.85;;;5.07;;
19492;SDS011;9887;54.366;10.958;2022-10-23T02:45:38;18.23;;;5.25;;
19492;SDS011;9887;54.366;10.958;2022-10-23T02:48:15;21.40;;;5.57;;
19492;SDS011;9887;54.366;10.958;2022-10-23T02:50:48;25.33;;;5.75;;
19492;SDS011;9887;54.366;10.958;2022-10-23T02:53:21;15.40;;;5.20;;
19492;SDS011;9887;54.366;10.958;2022-10-23T02:55:59;18.17;;;5.63;;
19492;SDS011;9887;54.366;10.958;2022-10-23T02:58:35;14.98;;;5.40;;
19492;SDS011;9887;54.366;10.958;2022-10-23T03:01:13;17.45;;;5.10;;
19492;SDS011;9887;54.366;10.958;2022-10-23T03:03:45;16.80;;;5.70;;
19492;SDS011;9887;54.366;10.958;2022-10-23T03:06:18;15.40;;;5.32;;
19492;SDS011;9887;54.366;10.958;2022-10-23T03:08:47;22.70;;;4.95;;
19492;SDS011;9887;54.366;10.958;2022-10-23T03:11:19;19.38;;;5.28;;
19492;SDS011;9887;54.366;10.958;2022-10-23T03:13:47;19.88;;;5.32;;
19492;SDS011;9887;54.366;10.958;2022-10-23T03:16:16;18.80;;;5.38;;
19492;SDS011;9887;54.366;10.958;2022-10-23T03:18:50;20.08;;;5.68;;
19492;SDS011;9887;54.366;10.958;2022-10-23T03:21:18;19.15;;;6.25;;
19492;SDS011;9887;54.366;10.958;2022-10-23T03:23:52;16.23;;;6.18;;
19492;SDS011;9887;54.366;10.958;2022-10-23T03:26:41;18.48;;;5.82;;
19492;SDS011;9887;54.366;10.958;2022-10-23T03:29:09;18.15;;;6.45;;
19492;SDS011;9887;54.366;10.958;2022-10-23T03:31:44;12.45;;;6.35;;
19492;SDS011;9887;54.366;10.958;2022-10-23T03:34:14;15.38;;;6.53;;
19492;SDS011;9887;54.366;10.958;2022-10-23T03:36:41;21.30;;;7.00;;
19492;SDS011;9887;54.366;10.958;2022-10-23T03:39:10;16.83;;;7.75;;
19492;SDS011;9887;54.366;10.958;2022-10-23T03:41:38;24.02;;;7.30;;
19492;SDS011;9887;54.366;10.958;2022-10-23T03:44:06;19.13;;;7.50;;
19492;SDS011;9887;54.366;10.958;2022-10-23T03:46:34;19.25;;;8.15;;
19492;SDS011;9887;54.366;10.958;2022-10-23T03:49:03;27.17;;;7.68;;
19492;SDS011;9887;54.366;10.958;2022-10-23T03:51:31;16.05;;;8.63;;
19492;SDS011;9887;54.366;10.958;2022-10-23T03:53:59;24.13;;;8.35;;
19492;SDS011;9887;54.366;10.958;2022-10-23T03:56:27;15.77;;;8.07;;
19492;SDS011;9887;54.366;10.958;2022-10-23T03:58:55;17.52;;;7.95;;
19492;SDS011;9887;54.366;10.958;2022-10-23T04:01:24;17.42;;;7.82;;
19492;SDS011;9887;54.366;10.958;2022-10-23T04:03:53;23.13;;;8.45;;
19492;SDS011;9887;54.366;10.958;2022-10-23T04:06:24;23.83;;;9.13;;
19492;SDS011;9887;54.366;10.958;2022-10-23T04:08:55;21.58;;;9.10;;
19492;SDS011;9887;54.366;10.958;2022-10-23T04:11:23;16.90;;;8.80;;
19492;SDS011;9887;54.366;10.958;2022-10-23T04:13:51;21.13;;;8.50;;
19492;SDS011;9887;54.366;10.958;2022-10-23T04:16:19;21.55;;;8.20;;
19492;SDS011;9887;54.366;10.958;2022-10-23T04:18:47;21.58;;;8.00;;
19492;SDS011;9887;54.366;10.958;2022-10-23T04:21:15;20.67;;;7.65;;
19492;SDS011;9887;54.366;10.958;2022-10-23T04:23:44;19.00;;;8.30;;
19492;SDS011;9887;54.366;10.958;2022-10-23T04:26:16;19.17;;;8.30;;
19492;SDS011;9887;54.366;10.958;2022-10-23T04:28:44;16.67;;;8.07;;
19492;SDS011;9887;54.366;10.958;2022-10-23T04:31:12;21.65;;;7.85;;
19492;SDS011;9887;54.366;10.958;2022-10-23T04:33:41;16.40;;;7.90;;
19492;SDS011;9887;54.366;10.958;2022-10-23T04:36:20;19.85;;;8.13;;
19492;SDS011;9887;54.366;10.958;2022-10-23T04:38:49;24.38;;;8.60;;
19492;SDS011;9887;54.366;10.958;2022-10-23T04:41:18;19.08;;;7.93;;
19492;SDS011;9887;54.366;10.958;2022-10-23T04:43:46;19.27;;;7.97;;
19492;SDS011;9887;54.366;10.958;2022-10-23T04:46:14;16.15;;;7.53;;
19492;SDS011;9887;54.366;10.958;2022-10-23T04:48:46;22.38;;;8.50;;
19492;SDS011;9887;54.366;10.958;2022-10-23T04:51:13;22.17;;;8.63;;
19492;SDS011;9887;54.366;10.958;2022-10-23T04:54:01;25.05;;;8.85;;
19492;SDS011;9887;54.366;10.958;2022-10-23T04:56:53;24.15;;;8.52;;
19492;SDS011;9887;54.366;10.958;2022-10-23T04:59:22;23.95;;;8.52;;
19492;SDS011;9887;54.366;10.958;2022-10-23T05:01:49;28.20;;;8.15;;
19492;SDS011;9887;54.366;10.958;2022-10-23T05:04:17;16.38;;;8.40;;
19492;SDS011;9887;54.366;10.958;2022-10-23T05:07:14;23.90;;;7.88;;
19492;SDS011;9887;54.366;10.958;2022-10-23T05:10:03;46.38;;;8.98;;
19492;SDS011;9887;54.366;10.958;2022-10-23T05:12:46;68.50;;;8.85;;
19492;SDS011;9887;54.366;10.958;2022-10-23T05:15:13;120.60;;;10.85;;
19492;SDS011;9887;54.366;10.958;2022-10-23T05:17:42;102.30;;;9.52;;
19492;SDS011;9887;54.366;10.958;2022-10-23T05:20:13;115.63;;;10.18;;
19492;SDS011;9887;54.366;10.958;2022-10-23T05:22:44;126.22;;;10.88;;
19492;SDS011;9887;54.366;10.958;2022-10-23T05:25:15;147.30;;;11.35;;
19492;SDS011;9887;54.366;10.958;2022-10-23T05:27:49;134.30;;;8.80;;
19492;SDS011;9887;54.366;10.958;2022-10-23T05:30:17;134.45;;;9.38;;
19492;SDS011;9887;54.366;10.958;2022-10-23T05:32:46;139.85;;;9.40;;
19492;SDS011;9887;54.366;10.958;2022-10-23T05:35:19;91.43;;;8.52;;
19492;SDS011;9887;54.366;10.958;2022-10-23T05:37:50;96.45;;;8.27;;
19492;SDS011;9887;54.366;10.958;2022-10-23T05:40:23;117.00;;;8.50;;
19492;SDS011;9887;54.366;10.958;2022-10-23T05:42:57;81.82;;;7.72;;
19492;SDS011;9887;54.366;10.958;2022-10-23T05:45:45;102.07;;;8.45;;
19492;SDS011;9887;54.366;10.958;2022-10-23T05:48:31;81.25;;;8.98;;
19492;SDS011;9887;54.366;10.958;2022-10-23T05:51:19;101.53;;;8.30;;
19492;SDS011;9887;54.366;10.958;2022-10-23T05:53:56;40.70;;;6.97;;
19492;SDS011;9887;54.366;10.958;2022-10-23T05:56:33;57.92;;;7.68;;
19492;SDS011;9887;54.366;10.958;2022-10-23T05:59:07;37.75;;;6.75;;
19492;SDS011;9887;54.366;10.958;2022-10-23T06:01:46;37.45;;;7.43;;
19492;SDS011;9887;54.366;10.958;2022-10-23T06:04:21;50.17;;;6.22;;
19492;SDS011;9887;54.366;10.958;2022-10-23T06:07:24;29.70;;;6.45;;
19492;SDS011;9887;54.366;10.958;2022-10-23T06:09:57;32.42;;;7.00;;
19492;SDS011;9887;54.366;10.958;2022-10-23T06:12:27;42.88;;;7.57;;
19492;SDS011;9887;54.366;10.958;2022-10-23T06:14:54;38.38;;;7.00;;
19492;SDS011;9887;54.366;10.958;2022-10-23T06:17:33;50.58;;;7.53;;
19492;SDS011;9887;54.366;10.958;2022-10-23T06:20:03;53.80;;;7.43;;
19492;SDS011;9887;54.366;10.958;2022-10-23T06:22:36;46.67;;;6.90;;
19492;SDS011;9887;54.366;10.958;2022-10-23T06:25:19;48.22;;;7.10;;
19492;SDS011;9887;54.366;10.958;2022-10-23T06:27:49;49.80;;;7.35;;
19492;SDS011;9887;54.366;10.958;2022-10-23T06:30:17;70.75;;;9.10;;
19492;SDS011;9887;54.366;10.958;2022-10-23T06:32:47;64.18;;;8.40;;
19492;SDS011;9887;54.366;10.958;2022-10-23T06:35:15;59.20;;;7.68;;
19492;SDS011;9887;54.366;10.958;2022-10-23T06:37:43;73.03;;;8.70;;
19492;SDS011;9887;54.366;10.958;2022-10-23T06:40:19;67.97;;;8.48;;
19492;SDS011;9887;54.366;10.958;2022-10-23T06:42:58;85.80;;;8.32;;
19492;SDS011;9887;54.366;10.958;2022-10-23T06:45:34;57.30;;;7.18;;
19492;SDS011;9887;54.366;10.958;2022-10-23T06:48:24;75.32;;;7.60;;
19492;SDS011;9887;54.366;10.958;2022-10-23T06:51:03;71.72;;;9.00;;
19492;SDS011;9887;54.366;10.958;2022-10-23T06:53:39;69.53;;;7.75;;
19492;SDS011;9887;54.366;10.958;2022-10-23T06:56:30;91.55;;;7.75;;
19492;SDS011;9887;54.366;10.958;2022-10-23T06:59:00;106.43;;;8.38;;
19492;SDS011;9887;54.366;10.958;2022-10-23T07:01:28;88.55;;;7.90;;
19492;SDS011;9887;54.366;10.958;2022-10-23T07:03:57;81.45;;;8.02;;
19492;SDS011;9887;54.366;10.958;2022-10-23T07:06:25;73.35;;;7.93;;
19492;SDS011;9887;54.366;10.958;2022-10-23T07:08:53;77.78;;;8.55;;
19492;SDS011;9887;54.366;10.958;2022-10-23T07:11:41;69.22;;;7.78;;
19492;SDS011;9887;54.366;10.958;2022-10-23T07:14:10;68.90;;;7.93;;
19492;SDS011;9887;54.366;10.958;2022-10-23T07:16:38;79.10;;;8.23;;
19492;SDS011;9887;54.366;10.958;2022-10-23T07:19:07;67.40;;;10.10;;
19492;SDS011;9887;54.366;10.958;2022-10-23T07:21:38;97.15;;;9.10;;
19492;SDS011;9887;54.366;10.958;2022-10-23T07:24:26;87.82;;;8.13;;
19492;SDS011;9887;54.366;10.958;2022-10-23T07:26:57;104.40;;;8.90;;
19492;SDS011;9887;54.366;10.958;2022-10-23T07:29:28;100.00;;;8.45;;
19492;SDS011;9887;54.366;10.958;2022-10-23T07:31:57;84.57;;;7.88;;
19492;SDS011;9887;54.366;10.958;2022-10-23T07:34:49;67.78;;;7.57;;
19492;SDS011;9887;54.366;10.958;2022-10-23T07:37:23;90.32;;;8.50;;
19492;SDS011;9887;54.366;10.958;2022-10-23T07:39:51;103.85;;;8.00;;
19492;SDS011;9887;54.366;10.958;2022-10-23T07:42:19;69.38;;;7.28;;
19492;SDS011;9887;54.366;10.958;2022-10-23T07:44:49;97.63;;;8.20;;
19492;SDS011;9887;54.366;10.958;2022-10-23T07:47:17;141.60;;;9.82;;
19492;SDS011;9887;54.366;10.958;2022-10-23T07:49:48;82.50;;;7.90;;
19492;SDS011;9887;54.366;10.958;2022-10-23T07:52:18;153.02;;;12.30;;
19492;SDS011;9887;54.366;10.958;2022-10-23T07:55:07;106.88;;;9.02;;
19492;SDS011;9887;54.366;10.958;2022-10-23T07:57:38;75.35;;;8.05;;
19492;SDS011;9887;54.366;10.958;2022-10-23T08:00:17;69.45;;;8.13;;
19492;SDS011;9887;54.366;10.958;2022-10-23T08:02:54;72.07;;;11.05;;
19492;SDS011;9887;54.366;10.958;2022-10-23T08:05:23;155.57;;;11.75;;
19492;SDS011;9887;54.366;10.958;2022-10-23T08:07:56;122.05;;;10.20;;
19492;SDS011;9887;54.366;10.958;2022-10-23T08:10:24;126.80;;;9.65;;
19492;SDS011;9887;54.366;10.958;2022-10-23T08:12:51;127.05;;;11.55;;
19492;SDS011;9887;54.366;10.958;2022-10-23T08:15:35;138.75;;;11.82;;
19492;SDS011;9887;54.366;10.958;2022-10-23T08:18:13;97.57;;;10.05;;
19492;SDS011;9887;54.366;10.958;2022-10-23T08:20:44;65.85;;;9.25;;
19492;SDS011;9887;54.366;10.958;2022-10-23T08:23:14;92.47;;;10.98;;
19492;SDS011;9887;54.366;10.958;2022-10-23T08:25:44;108.75;;;10.13;;
19492;SDS011;9887;54.366;10.958;2022-10-23T08:28:15;129.05;;;10.68;;
19492;SDS011;9887;54.366;10.958;2022-10-23T08:30:53;107.72;;;9.70;;
19492;SDS011;9887;54.366;10.958;2022-10-23T08:33:22;102.63;;;12.52;;
19492;SDS011;9887;54.366;10.958;2022-10-23T08:35:50;104.22;;;9.88;;
19492;SDS011;9887;54.366;10.958;2022-10-23T08:38:26;131.82;;;11.95;;
19492;SDS011;9887;54.366;10.958;2022-10-23T08:40:55;134.73;;;12.15;;
19492;SDS011;9887;54.366;10.958;2022-10-23T08:43:38;220.82;;;13.95;;
19492;SDS011;9887;54.366;10.958;2022-10-23T08:46:29;124.80;;;10.88;;
19492;SDS011;9887;54.366;10.958;2022-10-23T08:49:28;163.60;;;11.27;;
19492;SDS011;9887;54.366;10.958;2022-10-23T08:52:06;94.60;;;10.88;;
19492;SDS011;9887;54.366;10.958;2022-10-23T08:54:44;103.85;;;10.77;;
19492;SDS011;9887;54.366;10.958;2022-10-23T08:57:25;133.80;;;15.23;;
19492;SDS011;9887;54.366;10.958;2022-10-23T09:00:00;187.55;;;13.20;;
19492;SDS011;9887;54.366;10.958;2022-10-23T09:02:35;105.85;;;12.27;;
19492;SDS011;9887;54.366;10.958;2022-10-23T09:05:10;51.28;;;11.48;;
19492;SDS011;9887;54.366;10.958;2022-10-23T09:07:43;90.63;;;12.77;;
19492;SDS011;9887;54.366;10.958;2022-10-23T09:10:32;90.53;;;13.02;;
19492;SDS011;9887;54.366;10.958;2022-10-23T09:13:14;118.72;;;12.93;;
19492;SDS011;9887;54.366;10.958;2022-10-23T09:15:52;116.40;;;13.38;;
19492;SDS011;9887;54.366;10.958;2022-10-23T09:18:32;67.03;;;12.57;;
19492;SDS011;9887;54.366;10.958;2022-10-23T09:21:00;72.40;;;13.75;;
19492;SDS011;9887;54.366;10.958;2022-10-23T09:23:29;72.50;;;15.18;;
19492;SDS011;9887;54.366;10.958;2022-10-23T09:25:59;71.50;;;13.50;;
19492;SDS011;9887;54.366;10.958;2022-10-23T09:28:29;59.00;;;13.82;;
19492;SDS011;9887;54.366;10.958;2022-10-23T09:31:04;62.10;;;14.88;;
19492;SDS011;9887;54.366;10.958;2022-10-23T09:33:35;61.05;;;14.82;;
19492;SDS011;9887;54.366;10.958;2022-10-23T09:36:04;52.95;;;14.13;;
19492;SDS011;9887;54.366;10.958;2022-10-23T09:38:35;60.53;;;15.80;;
19492;SDS011;9887;54.366;10.958;2022-10-23T09:41:05;60.97;;;16.13;;
19492;SDS011;9887;54.366;10.958;2022-10-23T09:43:37;54.90;;;16.75;;
19492;SDS011;9887;54.366;10.958;2022-10-23T09:46:06;49.08;;;16.13;;
19492;SDS011;9887;54.366;10.958;2022-10-23T09:48:38;52.83;;;16.75;;
19492;SDS011;9887;54.366;10.958;2022-10-23T09:51:14;53.53;;;16.90;;
19492;SDS011;9887;54.366;10.958;2022-10-23T09:53:47;46.50;;;16.85;;
19492;SDS011;9887;54.366;10.958;2022-10-23T09:56:23;52.72;;;15.95;;
19492;SDS011;9887;54.366;10.958;2022-10-23T09:58:53;44.83;;;17.00;;
19492;SDS011;9887;54.366;10.958;2022-10-23T10:01:23;54.28;;;17.17;;
19492;SDS011;9887;54.366;10.958;2022-10-23T10:03:57;43.38;;;16.05;;
19492;SDS011;9887;54.366;10.958;2022-10-23T10:06:26;55.60;;;17.13;;
19492;SDS011;9887;54.366;10.958;2022-10-23T10:08:56;53.40;;;16.88;;
19492;SDS011;9887;54.366;10.958;2022-10-23T10:11:29;50.53;;;18.02;;
19492;SDS011;9887;54.366;10.958;2022-10-23T10:14:25;52.42;;;17.40;;
19492;SDS011;9887;54.366;10.958;2022-10-23T10:17:16;45.55;;;15.77;;
19492;SDS011;9887;54.366;10.958;2022-10-23T10:19:58;49.38;;;17.40;;
19492;SDS011;9887;54.366;10.958;2022-10-23T10:22:38;44.85;;;15.45;;
19492;SDS011;9887;54.366;10.958;2022-10-23T10:25:14;53.53;;;15.90;;
19492;SDS011;9887;54.366;10.958;2022-10-23T10:27:51;45.97;;;15.50;;
19492;SDS011;9887;54.366;10.958;2022-10-23T10:30:31;44.55;;;15.75;;
19492;SDS011;9887;54.366;10.958;2022-10-23T10:33:03;42.05;;;16.27;;
19492;SDS011;9887;54.366;10.958;2022-10-23T10:35:39;41.58;;;15.18;;
19492;SDS011;9887;54.366;10.958;2022-10-23T10:38:28;46.65;;;17.13;;
19492;SDS011;9887;54.366;10.958;2022-10-23T10:44:07;44.40;;;16.33;;
19492;SDS011;9887;54.366;10.958;2022-10-23T10:46:55;35.58;;;15.40;;
19492;SDS011;9887;54.366;10.958;2022-10-23T10:49:32;42.92;;;16.10;;
19492;SDS011;9887;54.366;10.958;2022-10-23T10:52:19;43.60;;;16.33;;
19492;SDS011;9887;54.366;10.958;2022-10-23T10:54:54;38.42;;;15.40;;
19492;SDS011;9887;54.366;10.958;2022-10-23T10:57:30;37.13;;;14.65;;
19492;SDS011;9887;54.366;10.958;2022-10-23T11:00:00;38.33;;;15.43;;
19492;SDS011;9887;54.366;10.958;2022-10-23T11:02:40;34.30;;;14.15;;
19492;SDS011;9887;54.366;10.958;2022-10-23T11:07:59;34.40;;;15.32;;
19492;SDS011;9887;54.366;10.958;2022-10-23T11:10:30;37.65;;;16.20;;
19492;SDS011;9887;54.366;10.958;2022-10-23T11:12:59;36.08;;;16.25;;
19492;SDS011;9887;54.366;10.958;2022-10-23T11:15:30;37.45;;;15.93;;
19492;SDS011;9887;54.366;10.958;2022-10-23T11:18:09;38.03;;;15.80;;
19492;SDS011;9887;54.366;10.958;2022-10-23T11:20:48;35.08;;;15.27;;
19492;SDS011;9887;54.366;10.958;2022-10-23T11:23:30;26.58;;;13.20;;
19492;SDS011;9887;54.366;10.958;2022-10-23T11:26:13;30.80;;;13.20;;
19492;SDS011;9887;54.366;10.958;2022-10-23T11:29:00;28.83;;;12.43;;
19492;SDS011;9887;54.366;10.958;2022-10-23T11:31:45;30.35;;;12.48;;
19492;SDS011;9887;54.366;10.958;2022-10-23T11:37:14;22.45;;;11.80;;
19492;SDS011;9887;54.366;10.958;2022-10-23T11:39:54;21.42;;;11.02;;
19492;SDS011;9887;54.366;10.958;2022-10-23T11:42:31;22.10;;;10.90;;
19492;SDS011;9887;54.366;10.958;2022-10-23T11:45:02;21.05;;;10.98;;
19492;SDS011;9887;54.366;10.958;2022-10-23T11:47:32;22.27;;;10.02;;
19492;SDS011;9887;54.366;10.958;2022-10-23T11:50:12;23.10;;;10.35;;
19492;SDS011;9887;54.366;10.958;2022-10-23T11:52:52;19.67;;;9.73;;
19492;SDS011;9887;54.366;10.958;2022-10-23T11:55:54;19.50;;;10.10;;
19492;SDS011;9887;54.366;10.958;2022-10-23T11:58:24;18.52;;;10.52;;
19492;SDS011;9887;54.366;10.958;2022-10-23T12:00:58;16.92;;;9.23;;
19492;SDS011;9887;54.366;10.958;2022-10-23T12:03:31;22.95;;;10.75;;
19492;SDS011;9887;54.366;10.958;2022-10-23T12:06:15;22.13;;;9.68;;
19492;SDS011;9887;54.366;10.958;2022-10-23T12:08:49;20.10;;;10.43;;
19492;SDS011;9887;54.366;10.958;2022-10-23T12:11:26;21.08;;;11.00;;
19492;SDS011;9887;54.366;10.958;2022-10-23T12:13:55;21.60;;;11.02;;
19492;SDS011;9887;54.366;10.958;2022-10-23T12:16:33;23.40;;;11.77;;
19492;SDS011;9887;54.366;10.958;2022-10-23T12:19:10;20.77;;;10.77;;
19492;SDS011;9887;54.366;10.958;2022-10-23T12:21:45;21.58;;;11.30;;
19492;SDS011;9887;54.366;10.958;2022-10-23T12:24:29;24.63;;;12.07;;
19492;SDS011;9887;54.366;10.958;2022-10-23T12:27:09;22.77;;;10.88;;
19492;SDS011;9887;54.366;10.958;2022-10-23T12:29:46;23.30;;;11.00;;
19492;SDS011;9887;54.366;10.958;2022-10-23T12:32:26;19.98;;;10.57;;
19492;SDS011;9887;54.366;10.958;2022-10-23T12:35:08;18.58;;;10.57;;
19492;SDS011;9887;54.366;10.958;2022-10-23T12:38:06;18.10;;;10.35;;
19492;SDS011;9887;54.366;10.958;2022-10-23T12:40:43;19.88;;;10.30;;
19492;SDS011;9887;54.366;10.958;2022-10-23T12:43:24;22.27;;;10.30;;
19492;SDS011;9887;54.366;10.958;2022-10-23T12:45:54;21.13;;;10.18;;
19492;SDS011;9887;54.366;10.958;2022-10-23T12:48:23;17.98;;;10.68;;
19492;SDS011;9887;54.366;10.958;2022-10-23T12:50:52;19.65;;;10.38;;
19492;SDS011;9887;54.366;10.958;2022-10-23T12:53:21;21.50;;;11.13;;
19492;SDS011;9887;54.366;10.958;2022-10-23T12:55:50;22.73;;;12.35;;
19492;SDS011;9887;54.366;10.958;2022-10-23T12:58:25;22.23;;;11.85;;
19492;SDS011;9887;54.366;10.958;2022-10-23T13:00:58;19.55;;;11.10;;
19492;SDS011;9887;54.366;10.958;2022-10-23T13:03:28;18.92;;;11.07;;
19492;SDS011;9887;54.366;10.958;2022-10-23T13:05:58;19.85;;;10.90;;
19492;SDS011;9887;54.366;10.958;2022-10-23T13:08:31;17.05;;;10.50;;
19492;SDS011;9887;54.366;10.958;2022-10-23T13:11:22;18.17;;;10.73;;
19492;SDS011;9887;54.366;10.958;2022-10-23T13:13:57;21.30;;;10.93;;
19492;SDS011;9887;54.366;10.958;2022-10-23T13:16:25;20.35;;;11.32;;
19492;SDS011;9887;54.366;10.958;2022-10-23T13:18:53;21.15;;;12.30;;
19492;SDS011;9887;54.366;10.958;2022-10-23T13:21:22;24.63;;;13.55;;
19492;SDS011;9887;54.366;10.958;2022-10-23T13:23:50;22.88;;;11.10;;
19492;SDS011;9887;54.366;10.958;2022-10-23T13:26:22;25.40;;;11.70;;
19492;SDS011;9887;54.366;10.958;2022-10-23T13:28:54;19.92;;;11.50;;
19492;SDS011;9887;54.366;10.958;2022-10-23T13:31:28;17.92;;;11.38;;
19492;SDS011;9887;54.366;10.958;2022-10-23T13:34:04;21.67;;;11.82;;
19492;SDS011;9887;54.366;10.958;2022-10-23T13:36:48;23.08;;;11.50;;
19492;SDS011;9887;54.366;10.958;2022-10-23T13:39:21;21.85;;;12.90;;
19492;SDS011;9887;54.366;10.958;2022-10-23T13:41:50;22.25;;;11.63;;
19492;SDS011;9887;54.366;10.958;2022-10-23T13:44:20;24.00;;;12.30;;
19492;SDS011;9887;54.366;10.958;2022-10-23T13:46:50;21.85;;;12.00;;
19492;SDS011;9887;54.366;10.958;2022-10-23T13:49:18;20.90;;;12.30;;
19492;SDS011;9887;54.366;10.958;2022-10-23T13:51:48;20.20;;;11.00;;
19492;SDS011;9887;54.366;10.958;2022-10-23T13:54:20;20.52;;;10.98;;
19492;SDS011;9887;54.366;10.958;2022-10-23T13:56:49;17.98;;;9.65;;
19492;SDS011;9887;54.366;10.958;2022-10-23T13:59:17;19.75;;;11.25;;
19492;SDS011;9887;54.366;10.958;2022-10-23T14:01:47;24.45;;;12.45;;
19492;SDS011;9887;54.366;10.958;2022-10-23T14:04:17;26.75;;;13.90;;
19492;SDS011;9887;54.366;10.958;2022-10-23T14:06:45;27.52;;;14.65;;
19492;SDS011;9887;54.366;10.958;2022-10-23T14:09:15;25.13;;;12.93;;
19492;SDS011;9887;54.366;10.958;2022-10-23T14:11:45;29.40;;;14.73;;
19492;SDS011;9887;54.366;10.958;2022-10-23T14:14:14;30.25;;;14.00;;
19492;SDS011;9887;54.366;10.958;2022-10-23T14:16:43;27.20;;;14.35;;
19492;SDS011;9887;54.366;10.958;2022-10-23T14:19:11;29.02;;;14.15;;
19492;SDS011;9887;54.366;10.958;2022-10-23T14:21:39;23.92;;;14.60;;
19492;SDS011;9887;54.366;10.958;2022-10-23T14:24:07;29.98;;;15.52;;
19492;SDS011;9887;54.366;10.958;2022-10-23T14:26:35;25.65;;;13.25;;
19492;SDS011;9887;54.366;10.958;2022-10-23T14:29:03;28.58;;;13.98;;
19492;SDS011;9887;54.366;10.958;2022-10-23T14:31:36;25.70;;;13.98;;
19492;SDS011;9887;54.366;10.958;2022-10-23T14:34:07;22.52;;;14.07;;
19492;SDS011;9887;54.366;10.958;2022-10-23T14:36:35;21.08;;;12.80;;
19492;SDS011;9887;54.366;10.958;2022-10-23T14:39:16;26.13;;;13.10;;
19492;SDS011;9887;54.366;10.958;2022-10-23T14:41:44;21.30;;;12.40;;
19492;SDS011;9887;54.366;10.958;2022-10-23T14:44:11;22.73;;;11.13;;
19492;SDS011;9887;54.366;10.958;2022-10-23T14:46:39;21.65;;;10.88;;
19492;SDS011;9887;54.366;10.958;2022-10-23T14:49:08;25.58;;;11.32;;
19492;SDS011;9887;54.366;10.958;2022-10-23T14:51:36;22.73;;;11.05;;
19492;SDS011;9887;54.366;10.958;2022-10-23T14:54:05;24.73;;;10.52;;
19492;SDS011;9887;54.366;10.958;2022-10-23T14:56:36;19.52;;;9.57;;
19492;SDS011;9887;54.366;10.958;2022-10-23T14:59:06;22.95;;;11.32;;
19492;SDS011;9887;54.366;10.958;2022-10-23T15:01:37;22.45;;;11.70;;
19492;SDS011;9887;54.366;10.958;2022-10-23T15:04:14;22.92;;;10.48;;
19492;SDS011;9887;54.366;10.958;2022-10-23T15:06:42;23.05;;;10.32;;
19492;SDS011;9887;54.366;10.958;2022-10-23T15:09:11;20.48;;;10.48;;
19492;SDS011;9887;54.366;10.958;2022-10-23T15:11:39;19.17;;;9.68;;
19492;SDS011;9887;54.366;10.958;2022-10-23T15:14:07;19.13;;;10.40;;
19492;SDS011;9887;54.366;10.958;2022-10-23T15:16:35;20.95;;;9.35;;
19492;SDS011;9887;54.366;10.958;2022-10-23T15:19:07;17.45;;;9.60;;